Time;durP1;ratioP1;P1;durP2;ratioP2;P2;SDS_P1;SDS_P2;PMS_P1;PMS_P2;Temp;Humidity;BMP_temperature;BMP_pressure;BME280_temperature;BME280_humidity;BME280_pressure;Samples;Min_cycle;Max_cycle;Signal;HPM_P1;HPM_P2
2024/02/03 00:01:32;;;;;;;3.40;3.20;;;8.40;95.70;;;8.50;100.00;101128.25;6184922;23;20174;-66
2024/02/03 00:04:00;;;;;;;1.95;1.35;;;8.40;1.00;;;8.51;100.00;101129.09;6184959;23;20161;-64
2024/02/03 00:06:29;;;;;;;2.63;1.50;;;8.40;1.00;;;8.43;100.00;101132.69;6185082;23;20185;-64
2024/02/03 00:08:58;;;;;;;1.80;1.70;;;8.40;99.90;;;8.49;100.00;101123.88;6185192;23;20186;-64
2024/02/03 00:11:27;;;;;;;2.25;1.30;;;8.40;99.90;;;8.54;100.00;101118.75;6184822;23;20505;-63
2024/02/03 00:13:56;;;;;;;2.25;1.85;;;8.40;1.00;;;8.47;100.00;101125.09;6184846;23;20233;-64
2024/02/03 00:16:26;;;;;;;2.58;1.58;;;8.40;1.00;;;8.52;100.00;101125.38;6184785;23;20150;-64
2024/02/03 00:18:55;;;;;;;2.22;1.83;;;8.40;1.00;;;8.56;100.00;101121.28;6184715;23;20267;-64
2024/02/03 00:21:24;;;;;;;1.50;1.38;;;8.40;1.00;;;8.52;100.00;101115.41;6184795;23;20233;-63
2024/02/03 00:23:52;;;;;;;1.85;1.40;;;8.40;1.00;;;8.52;100.00;101110.00;6184712;23;20205;-61
2024/02/03 00:26:21;;;;;;;2.55;2.05;;;8.40;1.00;;;8.53;100.00;101125.16;6184618;23;20216;-63
2024/02/03 00:28:51;;;;;;;4.70;3.08;;;8.40;57.60;;;8.50;100.00;101122.00;6184880;23;20236;-65
2024/02/03 00:31:19;;;;;;;2.65;1.70;;;8.40;99.90;;;8.46;100.00;101118.00;6185020;23;20637;-65
2024/02/03 00:33:49;;;;;;;2.33;1.80;;;8.40;99.90;;;8.47;100.00;101122.38;6185226;23;20208;-65
2024/02/03 00:36:22;;;;;;;2.78;2.47;;;;;;;8.46;100.00;101115.31;6185684;23;20181;-64
2024/02/03 00:38:51;;;;;;;4.93;2.17;;;8.40;1.00;;;8.45;100.00;101124.41;6186513;23;20181;-64
2024/02/03 00:41:19;;;;;;;2.67;1.70;;;8.40;1.00;;;8.51;100.00;101129.09;6160194;23;20173;-65
2024/02/03 00:43:48;;;;;;;2.47;1.85;;;8.40;1.00;;;8.50;100.00;101136.34;6186768;23;20594;-66
2024/02/03 00:46:16;;;;;;;3.13;2.10;;;8.40;1.00;;;8.51;100.00;101129.09;6186075;23;20565;-64
2024/02/03 00:48:45;;;;;;;5.00;1.90;;;8.40;1.00;;;8.50;100.00;101117.44;6186382;23;20185;-64
2024/02/03 00:51:15;;;;;;;2.83;2.47;;;8.40;28.80;;;8.55;100.00;101116.91;6186496;23;20230;-64
2024/02/03 00:53:44;;;;;;;2.20;1.50;;;8.50;99.40;;;8.58;100.00;101124.63;6184401;23;20240;-63
2024/02/03 00:56:12;;;;;;;2.00;1.80;;;8.50;99.90;;;8.60;100.00;101111.78;6186512;23;20146;-66
2024/02/03 00:58:41;;;;;;;2.83;1.83;;;8.50;90.40;;;8.66;100.00;101124.56;6186220;23;20268;-66
2024/02/03 01:01:10;;;;;;;3.45;2.10;;;8.60;48.20;;;8.70;100.00;101117.75;6186511;23;20166;-65
2024/02/03 01:03:41;;;;;;;9.73;2.75;;;8.50;5.50;;;8.70;100.00;101117.75;6186534;23;20158;-65
2024/02/03 01:06:09;;;;;;;2.33;2.00;;;8.60;1.00;;;8.69;100.00;101122.31;6188872;23;20201;-65
2024/02/03 01:08:40;;;;;;;2.10;1.17;;;8.60;1.00;;;8.68;100.00;101125.19;6189987;23;20221;-65
2024/02/03 01:11:08;;;;;;;2.30;2.03;;;;;;;8.65;100.00;101126.41;6186897;23;20672;-64
2024/02/03 01:13:37;;;;;;;2.85;1.73;;;8.60;99.90;;;8.63;100.00;101122.22;6187293;23;20166;-65
2024/02/03 01:16:07;;;;;;;1.83;1.70;;;8.50;99.90;;;8.67;100.00;101123.50;6187051;23;20177;-63
2024/02/03 01:18:39;;;;;;;4.75;3.30;;;8.60;99.90;;;8.71;100.00;101130.25;6186833;23;20177;-63
2024/02/03 01:21:08;;;;;;;2.38;2.15;;;8.60;1.00;;;8.75;100.00;101131.53;6186846;23;20229;-64
2024/02/03 01:23:36;;;;;;;2.65;1.85;;;8.60;99.90;;;8.76;100.00;101127.81;6187157;23;20151;-64
2024/02/03 01:26:06;;;;;;;3.65;2.92;;;8.60;99.90;;;8.81;100.00;101125.38;6186773;23;20154;-65
2024/02/03 01:28:35;;;;;;;2.72;2.38;;;8.70;1.00;;;8.82;100.00;101121.66;6187013;23;20189;-63
2024/02/03 01:31:04;;;;;;;2.70;1.95;;;8.70;23.20;;;8.79;100.00;101137.41;6186981;23;20169;-65
2024/02/03 01:33:32;;;;;;;3.75;2.63;;;8.70;1.00;;;8.82;100.00;101132.47;6186752;23;20539;-63
2024/02/03 01:36:01;;;;;;;2.78;2.50;;;8.70;99.90;;;8.85;100.00;101131.28;6187609;23;20162;-66
2024/02/03 01:38:29;;;;;;;2.42;1.30;;;8.70;99.90;;;8.86;100.00;101135.66;6189141;23;20177;-65
2024/02/03 01:40:58;;;;;;;1.85;1.75;;;8.70;1.00;;;8.87;100.00;101130.03;6190037;23;20216;-66
2024/02/03 01:43:28;;;;;;;1.73;1.63;;;8.80;1.00;;;8.89;100.00;101130.72;6189875;23;20621;-66
2024/02/03 01:45:57;;;;;;;3.70;2.05;;;8.80;99.90;;;8.91;100.00;101125.94;6188541;23;20149;-63
2024/02/03 01:48:26;;;;;;;3.47;2.53;;;8.80;99.90;;;8.98;100.00;101129.59;6188331;23;20695;-66
2024/02/03 01:50:55;;;;;;;2.97;2.75;;;8.80;99.90;;;9.03;100.00;101121.78;6189233;23;20177;-66
2024/02/03 01:53:24;;;;;;;4.68;3.75;;;8.90;99.90;;;9.03;100.00;101129.88;6188264;23;20174;-65
2024/02/03 01:55:54;;;;;;;3.85;3.22;;;8.90;1.00;;;9.01;100.00;101128.38;6161184;23;20169;-65
2024/02/03 01:58:22;;;;;;;3.20;1.58;;;8.90;1.00;;;9.06;100.00;101124.09;6188019;23;20181;-66
2024/02/03 02:00:53;;;;;;;4.03;3.15;;;9.00;1.00;;;9.04;100.00;101120.75;6188556;23;20157;-66
2024/02/03 02:03:22;;;;;;;2.60;1.50;;;9.00;1.00;;;9.10;100.00;101114.59;6187577;23;20158;-65
2024/02/03 02:05:51;;;;;;;2.72;2.30;;;9.00;1.00;;;9.12;100.00;101126.06;6186646;23;20162;-64
2024/02/03 02:08:19;;;;;;;3.58;2.13;;;9.00;1.00;;;9.14;100.00;101121.31;6186361;23;20596;-65
2024/02/03 02:10:49;;;;;;;2.38;1.95;;;9.00;99.90;;;9.15;100.00;101128.38;6186602;23;20595;-64
2024/02/03 02:13:18;;;;;;;2.30;2.17;;;9.00;99.90;;;9.22;100.00;101131.16;6186204;23;20602;-64
2024/02/03 02:15:47;;;;;;;2.58;1.40;;;9.10;99.90;;;9.24;100.00;101122.88;6186215;23;20154;-64
2024/02/03 02:18:17;;;;;;;2.30;2.10;;;9.10;99.90;;;9.28;100.00;101121.47;6186048;23;20228;-62
2024/02/03 02:20:48;;;;;;;3.20;2.28;;;9.20;99.90;;;9.30;100.00;101119.41;6186104;23;20466;-64
2024/02/03 02:23:17;;;;;;;1.33;1.23;;;9.20;99.90;;;9.35;100.00;101114.28;6185646;23;20228;-64
2024/02/03 02:25:45;;;;;;;2.72;1.88;;;9.20;99.90;;;9.32;100.00;101117.38;6186169;23;20154;-64
2024/02/03 02:28:14;;;;;;;2.80;2.35;;;9.20;99.90;;;9.39;100.00;101118.31;6185832;23;20181;-64
2024/02/03 02:30:42;;;;;;;2.10;1.75;;;9.30;84.70;;;9.44;100.00;101105.06;6186325;23;20150;-65
2024/02/03 02:33:12;;;;;;;5.15;3.08;;;9.30;22.50;;;9.48;100.00;101103.66;6186069;23;20161;-65
2024/02/03 02:35:43;;;;;;;7.18;2.42;;;9.30;1.70;;;9.50;100.00;101109.69;6186535;23;20513;-65
2024/02/03 02:38:13;;;;;;;2.63;2.40;;;9.40;1.00;;;9.49;100.00;101106.16;6187019;23;20188;-63
2024/02/03 02:40:42;;;;;;;2.90;2.47;;;9.40;1.00;;;9.50;100.00;101101.59;6187563;23;20150;-64
2024/02/03 02:43:11;;;;;;;1.42;0.93;;;9.40;1.00;;;9.51;100.00;101104.09;6188481;23;20169;-64
2024/02/03 02:45:40;;;;;;;2.97;2.63;;;9.40;1.00;;;9.55;100.00;101107.25;6189018;23;20181;-62
2024/02/03 02:48:09;;;;;;;3.77;3.10;;;9.40;1.00;;;9.59;100.00;101105.84;6188806;23;20177;-64
2024/02/03 02:50:38;;;;;;;3.70;2.78;;;9.50;1.00;;;9.58;100.00;101115.00;6188123;23;20385;-64
2024/02/03 02:53:07;;;;;;;2.15;1.55;;;9.50;1.00;;;9.59;100.00;101108.53;6187900;23;20169;-63
2024/02/03 02:55:37;;;;;;;3.20;2.42;;;9.50;1.00;;;9.58;100.00;101121.22;6188078;23;20208;-64
2024/02/03 02:58:06;;;;;;;2.00;1.80;;;9.50;1.00;;;9.60;100.00;101121.03;6187081;23;20193;-63
2024/02/03 03:00:37;;;;;;;2.33;1.90;;;9.50;1.00;;;9.65;100.00;101113.19;6186990;23;20396;-66
2024/02/03 03:03:06;;;;;;;2.65;2.42;;;9.50;1.00;;;9.66;100.00;101111.34;6187113;23;20157;-64
2024/02/03 03:05:34;;;;;;;2.85;2.13;;;9.60;1.00;;;9.66;100.00;101109.47;6186728;23;20172;-64
2024/02/03 03:08:04;;;;;;;4.05;3.17;;;9.60;1.00;;;9.66;100.00;101101.38;6187741;23;20181;-65
2024/02/03 03:10:33;;;;;;;4.38;2.97;;;9.50;1.00;;;9.66;100.00;101114.88;6188380;23;20164;-66
2024/02/03 03:13:03;;;;;;;1.75;0.93;;;9.60;1.00;;;9.70;100.00;101102.66;6188391;23;20594;-66
2024/02/03 03:15:31;;;;;;;3.72;2.63;;;9.60;1.00;;;9.68;100.00;101107.44;6188955;23;20153;-66
2024/02/03 03:18:00;;;;;;;2.90;2.27;;;9.60;1.00;;;9.73;100.00;101109.56;6188471;23;20207;-66
2024/02/03 03:20:28;;;;;;;1.45;1.35;;;9.60;1.00;;;9.71;100.00;101093.53;6187896;23;20373;-66
2024/02/03 03:22:57;;;;;;;2.30;1.83;;;9.60;1.00;;;9.72;100.00;101094.38;6186836;23;20161;-65
2024/02/03 03:25:26;;;;;;;3.10;2.40;;;9.60;1.00;;;9.75;100.00;101094.81;6186517;23;20150;-65
2024/02/03 03:27:54;;;;;;;2.80;2.17;;;9.60;1.00;;;9.73;100.00;101093.34;6186115;23;20429;-65
2024/02/03 03:30:24;;;;;;;4.20;3.57;;;9.60;1.00;;;9.79;100.00;101104.19;6185755;23;20428;-65
2024/02/03 03:32:53;;;;;;;3.78;2.60;;;9.60;1.00;;;9.73;100.00;101102.25;6185894;23;20429;-66
2024/02/03 03:35:22;;;;;;;2.58;2.22;;;9.70;1.00;;;9.74;100.00;101100.41;6185731;23;20161;-65
2024/02/03 03:37:50;;;;;;;6.10;4.10;;;9.60;1.00;;;9.70;100.00;101099.94;6160076;23;20220;-65
2024/02/03 03:40:19;;;;;;;4.97;2.87;;;9.60;1.00;;;9.64;100.00;101087.19;6185614;23;20389;-63
2024/02/03 03:42:49;;;;;;;4.53;2.95;;;9.60;1.00;;;9.56;100.00;101093.56;6185283;23;20388;-66
2024/02/03 03:45:18;;;;;;;4.75;2.90;;;9.60;1.00;;;9.56;100.00;101103.53;6185483;23;20245;-66
2024/02/03 03:47:48;;;;;;;3.92;2.75;;;9.50;1.00;;;9.54;100.00;101101.03;6185747;23;20521;-65
2024/02/03 03:50:17;;;;;;;3.85;3.50;;;9.50;1.00;;;9.51;100.00;101095.16;6185029;23;20149;-67
2024/02/03 03:52:45;;;;;;;5.60;3.30;;;9.40;30.00;;;9.51;100.00;101092.47;6184889;23;20573;-63
2024/02/03 03:55:14;;;;;;;3.40;2.50;;;9.40;95.80;;;9.49;100.00;101081.00;6184419;23;20172;-64
2024/02/03 03:57:43;;;;;;;7.78;3.47;;;9.40;99.90;;;9.52;100.00;101103.09;6184440;23;20252;-63
2024/02/03 04:00:15;;;;;;;4.27;2.47;;;9.40;99.90;;;9.53;100.00;101103.94;6184403;23;20156;-65
2024/02/03 04:02:46;;;;;;;4.50;2.35;;;9.40;99.90;;;9.52;100.00;101108.50;6184492;23;20892;-64
2024/02/03 04:05:16;;;;;;;3.42;3.05;;;9.40;99.90;;;9.57;100.00;101102.53;6184549;23;20157;-65
2024/02/03 04:07:44;;;;;;;6.03;4.53;;;9.50;99.90;;;9.58;100.00;101109.59;6184473;23;20190;-64
2024/02/03 04:10:12;;;;;;;3.45;1.95;;;9.50;91.00;;;9.60;100.00;101104.81;6184520;23;20184;-63
2024/02/03 04:12:41;;;;;;;3.17;2.85;;;9.50;52.30;;;9.59;100.00;101105.84;6186575;23;20688;-63
2024/02/03 04:15:10;;;;;;;2.63;2.40;;;9.50;44.90;;;9.63;100.00;101107.16;6186506;23;20185;-65
2024/02/03 04:17:39;;;;;;;4.82;2.60;;;9.50;22.40;;;9.70;100.00;101102.66;6186810;23;20908;-63
2024/02/03 04:20:09;;;;;;;7.40;3.03;;;9.50;1.00;;;9.73;100.00;101110.38;6186433;23;20157;-65
2024/02/03 04:22:39;;;;;;;4.18;3.17;;;9.60;1.00;;;9.82;100.00;101094.88;6186811;23;20154;-63
2024/02/03 04:25:08;;;;;;;3.50;2.38;;;9.60;1.00;;;9.79;100.00;101098.78;6187855;23;20176;-65
2024/02/03 04:27:37;;;;;;;2.00;1.55;;;9.70;1.00;;;9.87;100.00;101090.59;6186288;23;20185;-67
2024/02/03 04:30:07;;;;;;;3.43;2.97;;;9.70;1.00;;;9.96;100.00;101097.53;6186633;23;20224;-65
2024/02/03 04:32:52;;;;;;;3.90;1.58;;;9.70;1.00;;;9.99;100.00;101097.13;6186504;23;20373;-64
2024/02/03 04:35:21;;;;;;;2.38;2.08;;;9.90;1.00;;;9.97;100.00;101088.38;6186519;23;20525;-65
2024/02/03 04:37:51;;;;;;;4.57;2.42;;;9.90;1.00;;;10.03;100.00;101098.41;6186741;23;20260;-64
2024/02/03 04:40:19;;;;;;;3.60;2.20;;;9.90;1.00;;;10.02;100.00;101094.03;6186691;23;20173;-66
2024/02/03 04:42:48;;;;;;;7.70;2.75;;;9.90;1.00;;;10.08;100.00;101086.19;6186988;23;20165;-65
2024/02/03 04:45:17;;;;;;;3.00;2.53;;;10.00;1.00;;;10.08;100.00;101076.19;6186852;23;20609;-62
2024/02/03 04:47:46;;;;;;;3.63;2.15;;;;;;;10.12;100.00;101087.50;6187371;23;20189;-63
2024/02/03 04:50:15;;;;;;;3.15;2.75;;;10.00;1.00;;;10.12;100.00;101088.31;6187892;23;20223;-64
2024/02/03 04:52:43;;;;;;;3.03;1.60;;;10.00;1.00;;;10.17;100.00;101085.03;6187688;23;20225;-64
2024/02/03 04:55:13;;;;;;;4.35;1.48;;;10.00;1.00;;;10.14;100.00;101085.41;6188786;23;20389;-66
2024/02/03 04:57:42;;;;;;;4.03;2.45;;;10.00;1.00;;;10.17;100.00;101090.44;6186892;23;20557;-63
2024/02/03 05:00:13;;;;;;;6.40;2.37;;;10.00;1.00;;;10.19;100.00;101086.53;6186546;23;20192;-64
2024/02/03 05:02:42;;;;;;;4.33;3.93;;;10.00;1.00;;;10.16;100.00;101094.22;6186613;23;20465;-66
2024/02/03 05:05:10;;;;;;;4.30;2.00;;;10.00;1.00;;;10.19;100.00;101101.91;6186075;23;20377;-65
2024/02/03 05:07:39;;;;;;;4.37;4.00;;;10.10;1.00;;;10.20;100.00;101096.31;6186547;23;20421;-65
2024/02/03 05:10:08;;;;;;;4.60;2.17;;;10.10;1.00;;;10.18;100.00;101105.66;6185910;23;20413;-63
2024/02/03 05:12:38;;;;;;;2.60;2.00;;;10.10;1.00;;;10.20;100.00;101109.00;6186061;23;20381;-66
2024/02/03 05:15:08;;;;;;;12.33;4.00;;;10.10;1.00;;;10.20;100.00;101107.16;6185949;23;20830;-64
2024/02/03 05:17:36;;;;;;;3.33;1.70;;;10.10;1.00;;;10.20;100.00;101101.72;6186194;23;20467;-64
2024/02/03 05:20:06;;;;;;;3.20;2.00;;;10.10;1.00;;;10.22;100.00;101109.63;6186846;23;20836;-66
2024/02/03 05:22:35;;;;;;;3.20;2.07;;;10.20;1.00;;;10.22;100.00;101109.63;6183678;23;20396;-66
2024/02/03 05:25:04;;;;;;;4.77;2.13;;;10.10;1.00;;;10.21;100.00;101108.00;6185844;23;20865;-65
2024/02/03 05:27:33;;;;;;;2.13;1.95;;;10.10;1.00;;;10.20;100.00;101115.25;6185718;23;20412;-64
2024/02/03 05:30:04;;;;;;;2.17;1.98;;;10.10;1.00;;;10.21;100.00;101094.47;6185999;23;20690;-67
2024/02/03 05:32:33;;;;;;;2.40;2.05;;;10.10;1.00;;;10.17;100.00;101093.16;6186017;23;20184;-66
2024/02/03 05:35:01;;;;;;;2.83;2.13;;;10.10;1.00;;;10.13;100.00;101103.50;6186083;23;20165;-64
2024/02/03 05:37:30;;;;;;;2.25;2.05;;;10.10;1.00;;;10.09;100.00;101096.81;6185788;23;20412;-63
2024/02/03 05:39:58;;;;;;;4.40;3.97;;;10.00;1.00;;;10.14;100.00;101098.94;6185721;23;20146;-65
2024/02/03 05:42:29;;;;;;;6.23;4.20;;;10.00;1.00;;;10.14;100.00;101097.06;6185744;23;20469;-64
2024/02/03 05:44:59;;;;;;;2.83;2.60;;;10.00;1.00;;;10.17;100.00;101095.84;6185575;23;20370;-65
2024/02/03 05:47:29;;;;;;;2.70;2.43;;;10.00;1.00;;;10.19;100.00;101102.75;6185513;23;20409;-65
2024/02/03 05:49:57;;;;;;;4.10;3.80;;;10.10;1.00;;;10.16;100.00;101095.06;6185447;23;20421;-66
2024/02/03 05:52:26;;;;;;;7.43;2.50;;;10.10;1.00;;;10.20;100.00;101098.19;6185398;23;20400;-65
2024/02/03 05:54:55;;;;;;;2.67;2.47;;;10.10;1.00;;;10.22;100.00;101101.53;6185641;23;20393;-66
2024/02/03 05:57:23;;;;;;;3.38;2.25;;;10.10;1.00;;;10.23;100.00;101104.03;6185440;23;20411;-64
2024/02/03 05:59:52;;;;;;;1.53;1.20;;;10.10;1.00;;;10.25;100.00;101099.28;6185290;23;20163;-65
2024/02/03 06:02:21;;;;;;;3.40;2.40;;;10.10;1.00;;;10.25;100.00;101104.69;6185580;23;20388;-63
2024/02/03 06:04:51;;;;;;;2.55;1.80;;;10.20;1.00;;;10.20;100.00;101104.44;6185479;23;20375;-66
2024/02/03 06:07:19;;;;;;;2.50;2.30;;;10.10;1.00;;;10.29;100.00;101105.13;6185198;23;20181;-66
2024/02/03 06:09:48;;;;;;;3.50;1.65;;;10.20;1.00;;;10.24;100.00;101099.47;6185324;23;20443;-66
2024/02/03 06:12:16;;;;;;;2.37;1.07;;;10.10;1.00;;;10.27;100.00;101101.78;6185229;23;20236;-66
2024/02/03 06:14:46;;;;;;;3.93;2.60;;;10.20;1.00;;;10.29;100.00;101099.72;6185268;23;20380;-65
2024/02/03 06:17:14;;;;;;;2.05;1.95;;;10.20;1.00;;;10.30;100.00;101101.41;6185131;23;20782;-65
2024/02/03 06:19:43;;;;;;;4.50;1.33;;;10.20;1.00;;;10.32;100.00;101107.44;6158842;23;20200;-65
2024/02/03 06:22:14;;;;;;;2.90;2.63;;;10.20;1.00;;;10.27;100.00;101108.03;6185610;23;20369;-65
2024/02/03 06:24:42;;;;;;;1.63;1.40;;;10.20;1.00;;;10.25;100.00;101106.56;6185498;23;20710;-64
2024/02/03 06:27:11;;;;;;;2.47;1.57;;;10.20;1.00;;;10.25;100.00;101106.56;6185266;23;20420;-65
2024/02/03 06:29:39;;;;;;;1.77;1.57;;;10.10;1.00;;;10.27;100.00;101108.03;6184980;23;20423;-65
2024/02/03 06:32:08;;;;;;;1.95;1.25;;;10.20;1.00;;;10.32;100.00;101110.13;6185875;23;20389;-66
2024/02/03 06:34:36;;;;;;;1.50;0.90;;;10.20;1.00;;;10.30;100.00;101112.22;6185229;23;20161;-65
2024/02/03 06:37:05;;;;;;;2.58;2.30;;;10.20;1.00;;;10.29;100.00;101115.94;6185266;23;20389;-65
2024/02/03 06:39:35;;;;;;;1.43;1.17;;;10.20;1.00;;;10.27;100.00;101110.72;6159193;23;20618;-66
2024/02/03 06:42:04;;;;;;;2.90;1.33;;;10.20;1.00;;;10.25;100.00;101109.25;6185820;23;20896;-66
2024/02/03 06:44:33;;;;;;;2.08;1.33;;;10.20;1.00;;;10.21;100.00;101114.25;6184963;23;20369;-64
2024/02/03 06:47:02;;;;;;;1.13;1.03;;;10.20;1.00;;;10.19;100.00;101107.34;6184987;23;20162;-66
2024/02/03 06:49:30;;;;;;;1.30;1.13;;;10.10;1.00;;;10.20;100.00;101114.41;6185176;23;20373;-66
2024/02/03 06:51:59;;;;;;;3.20;1.50;;;10.10;1.00;;;10.17;100.00;101109.38;6184836;23;20408;-65
2024/02/03 06:54:27;;;;;;;3.13;2.40;;;10.10;1.00;;;10.19;100.00;101115.44;6185495;23;20860;-62
2024/02/03 06:56:58;;;;;;;1.97;1.53;;;10.10;1.00;;;10.17;100.00;101115.63;6185216;23;20395;-59
2024/02/03 06:59:27;;;;;;;1.35;1.25;;;10.10;1.00;;;10.18;100.00;101125.41;6185322;23;20424;-65
2024/02/03 07:01:55;;;;;;;1.77;1.67;;;10.10;1.00;;;10.17;100.00;101121.03;6184441;23;20253;-66
2024/02/03 07:04:24;;;;;;;2.53;1.50;;;10.10;1.00;;;10.18;100.00;101127.28;6184789;23;20417;-66
2024/02/03 07:06:52;;;;;;;2.73;2.30;;;10.10;1.00;;;10.16;100.00;101132.06;6184826;23;20369;-65
2024/02/03 07:09:22;;;;;;;2.42;1.38;;;10.10;1.00;;;10.14;100.00;101134.94;6185078;23;20908;-64
2024/02/03 07:11:50;;;;;;;2.63;1.43;;;10.10;1.00;;;10.17;100.00;101128.31;6184656;23;20177;-63
2024/02/03 07:14:32;;;;;;;6.60;3.60;;;10.10;1.00;;;10.19;100.00;101137.06;6185077;23;20788;-65
2024/02/03 07:17:00;;;;;;;2.00;1.87;;;10.10;1.00;;;10.22;100.00;101131.28;6185291;23;20373;-66
2024/02/03 07:19:29;;;;;;;2.27;2.07;;;10.10;1.00;;;10.13;100.00;101133.25;6185091;23;20391;-66
2024/02/03 07:21:58;;;;;;;2.53;2.33;;;10.10;1.00;;;10.12;100.00;101136.97;6185128;23;20372;-65
2024/02/03 07:24:26;;;;;;;3.00;2.70;;;10.00;1.00;;;10.14;100.00;101142.19;6185273;23;20416;-64
2024/02/03 07:26:55;;;;;;;5.50;2.08;;;10.00;1.00;;;10.12;100.00;101138.88;6184914;23;20475;-65
2024/02/03 07:29:23;;;;;;;1.55;1.40;;;10.00;1.00;;;10.14;100.00;101150.31;6185000;23;20168;-65
2024/02/03 07:32:01;;;;;;;1.87;1.67;;;10.00;1.00;;;10.15;100.00;101146.59;6183280;23;20205;-64
2024/02/03 07:34:30;;;;;;;3.43;1.63;;;10.00;24.60;;;10.18;100.00;101147.06;6185242;23;20853;-65
2024/02/03 07:36:59;;;;;;;2.20;1.20;;;10.10;30.90;;;10.16;100.00;101149.13;6184396;23;20471;-66
2024/02/03 07:39:28;;;;;;;2.73;2.20;;;10.10;24.10;;;10.17;100.00;101152.66;6184413;23;20493;-67
2024/02/03 07:41:56;;;;;;;2.55;2.25;;;10.10;21.10;;;10.12;100.00;101153.19;6184340;23;20420;-65
2024/02/03 07:44:25;;;;;;;1.87;1.40;;;10.00;44.20;;;10.15;100.00;101162.81;6184403;23;20173;-66
2024/02/03 07:46:53;;;;;;;2.85;2.65;;;10.00;67.80;;;10.27;100.00;101163.97;6184436;23;20396;-63
2024/02/03 07:49:23;;;;;;;3.33;1.87;;;10.10;81.70;;;10.20;100.00;101160.41;6184857;23;20153;-65
2024/02/03 07:51:52;;;;;;;2.63;2.40;;;10.00;33.70;;;10.23;100.00;101170.81;6184529;23;20428;-65
2024/02/03 07:54:21;;;;;;;3.27;2.97;;;10.10;60.20;;;10.22;100.00;101161.88;6184499;23;20396;-65
2024/02/03 07:56:49;;;;;;;2.37;2.10;;;10.10;99.90;;;10.21;100.00;101164.78;6184551;23;20381;-65
2024/02/03 07:59:19;;;;;;;3.13;2.30;;;10.10;99.90;;;10.20;100.00;101171.22;6184324;23;20416;-65
2024/02/03 08:01:48;;;;;;;2.80;1.27;;;10.10;99.90;;;10.20;100.00;101168.50;6184588;23;20392;-65
2024/02/03 08:04:16;;;;;;;2.37;2.00;;;10.10;99.90;;;10.23;100.00;101174.38;6184491;23;20378;-64
2024/02/03 08:06:46;;;;;;;1.67;1.57;;;10.10;99.90;;;10.15;100.00;101173.63;6184817;23;20428;-65
2024/02/03 08:09:15;;;;;;;2.03;1.63;;;10.10;99.90;;;10.19;100.00;101164.13;6184188;23;20401;-64
2024/02/03 08:11:44;;;;;;;3.77;2.90;;;10.10;99.90;;;10.18;100.00;101165.16;6184632;23;20902;-63
2024/02/03 08:14:13;;;;;;;3.50;3.20;;;10.10;99.90;;;10.15;100.00;101160.09;6184798;23;20804;-66
2024/02/03 08:16:41;;;;;;;3.47;2.30;;;10.10;99.90;;;10.10;100.00;101159.84;6184495;23;20415;-66
2024/02/03 08:19:10;;;;;;;1.50;1.30;;;10.00;99.90;;;10.06;100.00;101159.41;6184299;23;20404;-66
2024/02/03 08:21:39;;;;;;;2.20;2.00;;;10.00;99.90;;;10.18;100.00;101157.03;6184476;23;20633;-66
2024/02/03 08:24:08;;;;;;;3.23;2.60;;;10.00;1.00;;;10.12;100.00;101152.38;6184954;23;20373;-66
2024/02/03 08:26:37;;;;;;;3.17;2.63;;;10.00;1.00;;;10.13;100.00;101146.75;6184345;23;20869;-66
2024/02/03 08:29:11;;;;;;;4.37;2.87;;;10.00;1.00;;;10.15;100.00;101141.19;6184321;23;20409;-66
2024/02/03 08:31:40;;;;;;;3.80;3.27;;;10.00;1.00;;;10.14;100.00;101151.16;6184534;23;20435;-66
2024/02/03 08:34:08;;;;;;;6.17;2.10;;;10.00;1.00;;;10.08;100.00;101151.91;6184730;23;20399;-65
2024/02/03 08:36:37;;;;;;;4.93;2.80;;;10.00;1.00;;;10.13;100.00;101143.22;6184914;23;20374;-66
2024/02/03 08:39:05;;;;;;;3.70;3.17;;;10.00;1.00;;;10.06;100.00;101153.16;6184362;23;20869;-65
2024/02/03 08:41:35;;;;;;;1.80;1.53;;;9.90;42.80;;;10.13;100.00;101137.81;6184735;23;20364;-65
2024/02/03 08:44:04;;;;;;;2.30;1.00;;;10.00;99.90;;;10.22;100.00;101142.09;6184630;23;20369;-65
2024/02/03 08:46:32;;;;;;;3.53;3.17;;;10.00;99.90;;;10.19;100.00;101137.91;6184282;23;20363;-62
2024/02/03 08:49:01;;;;;;;4.47;2.27;;;10.00;44.80;;;10.20;100.00;101149.59;6184252;23;20380;-66
2024/02/03 08:51:29;;;;;;;3.07;1.90;;;10.00;2.50;;;10.19;100.00;101146.03;6184360;23;20422;-65
2024/02/03 08:53:58;;;;;;;1.97;1.60;;;10.00;1.00;;;10.21;100.00;101141.28;6184183;23;20351;-64
2024/02/03 08:56:27;;;;;;;3.03;2.07;;;10.10;1.00;;;10.22;100.00;101144.78;6184382;23;20393;-66
2024/02/03 08:58:57;;;;;;;2.50;2.17;;;10.10;1.00;;;10.34;100.00;101151.38;6185704;23;20379;-66
2024/02/03 09:01:26;;;;;;;3.10;1.90;;;10.20;14.30;;;10.32;100.00;101127.22;6186069;23;20371;-65
2024/02/03 09:03:55;;;;;;;2.80;1.58;;;10.20;93.30;;;10.35;100.00;101136.81;6185792;23;20390;-65
2024/02/03 09:06:24;;;;;;;2.13;1.93;;;10.20;99.90;;;10.35;100.00;101136.81;6185689;23;20146;-66
2024/02/03 09:08:53;;;;;;;4.30;2.33;;;10.20;99.90;;;10.37;100.00;101140.16;6185930;23;20375;-66
2024/02/03 09:11:21;;;;;;;2.47;1.40;;;10.20;99.90;;;10.37;100.00;101141.00;6185994;23;20421;-66
2024/02/03 09:13:49;;;;;;;3.00;2.17;;;10.20;1.00;;;10.41;100.00;101141.44;6186399;23;20344;-64
2024/02/03 09:16:20;;;;;;;3.23;1.10;;;10.20;1.00;;;10.39;100.00;101149.75;6185981;23;20402;-65
2024/02/03 09:18:48;;;;;;;3.07;2.33;;;10.30;1.00;;;10.38;100.00;101148.09;6185796;23;20409;-65
2024/02/03 09:21:17;;;;;;;1.60;1.00;;;10.30;1.00;;;10.42;100.00;101156.63;6185767;23;20373;-64
2024/02/03 09:23:48;;;;;;;3.70;1.53;;;10.30;1.00;;;10.32;100.00;101145.31;6187908;23;20815;-66
2024/02/03 09:26:16;;;;;;;2.43;1.60;;;10.20;1.00;;;10.34;100.00;101152.22;6185856;23;20461;-65
2024/02/03 09:28:45;;;;;;;2.23;2.03;;;10.20;1.00;;;10.41;100.00;101157.66;6184018;23;20424;-66
2024/02/03 09:31:19;;;;;;;3.60;2.60;;;10.20;1.00;;;10.39;100.00;101154.34;6185924;23;20417;-63
2024/02/03 09:33:48;;;;;;;2.63;2.40;;;10.30;1.00;;;10.30;100.00;101150.94;6186294;23;20369;-65
2024/02/03 09:36:17;;;;;;;2.20;1.30;;;10.20;2.00;;;10.34;100.00;101156.78;6185759;23;20385;-66
2024/02/03 09:38:46;;;;;;;2.90;2.63;;;10.20;99.90;;;10.29;100.00;101162.78;6185865;23;20409;-66
2024/02/03 09:41:14;;;;;;;2.03;1.30;;;10.20;99.90;;;10.27;100.00;101167.53;6185732;23;20416;-67
2024/02/03 09:43:43;;;;;;;1.37;1.27;;;10.20;99.90;;;10.31;100.00;101170.72;6185898;23;20380;-66
2024/02/03 09:46:12;;;;;;;3.70;2.27;;;10.20;1.00;;;10.32;100.00;101175.06;6185722;23;20381;-66
2024/02/03 09:48:42;;;;;;;2.23;1.80;;;10.20;1.00;;;10.32;100.00;101178.59;6189958;23;20925;-66
2024/02/03 09:51:12;;;;;;;4.33;3.27;;;10.20;99.90;;;10.34;100.00;101168.44;6188781;23;20432;-66
2024/02/03 09:53:43;;;;;;;2.37;2.17;;;10.20;99.90;;;10.41;100.00;101179.31;6188508;23;20400;-66
2024/02/03 09:56:12;;;;;;;1.63;1.00;;;10.20;1.00;;;10.37;100.00;101176.16;6187983;23;20402;-66
2024/02/03 09:58:40;;;;;;;2.70;1.47;;;10.30;99.90;;;10.46;100.00;101176.84;6187460;23;20409;-66
2024/02/03 10:01:11;;;;;;;2.20;1.87;;;10.30;99.90;;;10.51;100.00;101179.81;6187744;23;20428;-65
2024/02/03 10:03:46;;;;;;;3.27;1.93;;;10.40;99.90;;;10.51;100.00;101176.28;6187869;23;20381;-65
2024/02/03 10:06:18;;;;;;;4.40;1.70;;;10.40;1.00;;;10.55;100.00;101167.59;6187592;23;20373;-66
2024/02/03 10:08:51;;;;;;;1.97;1.50;;;10.40;1.00;;;10.74;100.00;101172.34;6187045;23;20569;-69
2024/02/03 10:11:20;;;;;;;1.97;1.53;;;10.50;1.00;;;10.80;100.00;101176.94;6187279;23;20408;-65
2024/02/03 10:13:50;;;;;;;2.10;1.60;;;10.60;1.00;;;10.84;100.00;101172.78;6186847;23;20438;-66
2024/02/03 10:16:19;;;;;;;1.43;1.13;;;10.60;99.90;;;10.86;100.00;101173.44;6187208;23;20373;-65
2024/02/03 10:18:49;;;;;;;1.57;1.47;;;10.70;99.90;;;10.87;100.00;101164.31;6187017;23;20417;-64
2024/02/03 10:21:18;;;;;;;2.43;2.10;;;10.70;99.90;;;10.86;100.00;101161.78;6186626;23;20445;-66
2024/02/03 10:23:51;;;;;;;3.33;2.13;;;10.70;99.90;;;10.90;100.00;101163.06;6187506;23;20385;-66
2024/02/03 10:26:20;;;;;;;3.40;2.50;;;10.70;99.90;;;10.76;100.00;101145.88;6187184;23;20373;-65